Terminal Aerodrome Forecast
Issued by NWS Northern Indiana

Home | Current Version | Previous Version | Text Only | Print | Product List | Glossary Off
Versions: 1 2 3 4 5 6 7 8 9 10 11 12 13

000
FTUS43 KIWX 162300 CCA
TAFFWA
TAF COR
KFWA 162337Z 1700/1724 13012G20KT P6SM SCT250
     FM170100 12010KT P6SM SCT250
     FM171500 20013G21KT P6SM FEW050 BKN200=

USA.gov is the U.S. government's official web portal to all federal, state and local government web resources and services.